sensor_id;sensor_type;location;lat;lon;timestamp;pressure;altitude;pressure_sealevel;temperature;humidity
70103;BME280;57470;50.034;15.256;2023-03-03T00:01:01;99752.13;;;-1.26;84.07
70103;BME280;57470;50.034;15.256;2023-03-03T00:03:26;99743.50;;;-1.33;85.25
70103;BME280;57470;50.034;15.256;2023-03-03T00:05:52;99747.00;;;-1.34;84.89
70103;BME280;57470;50.034;15.256;2023-03-03T00:08:18;99751.72;;;-1.56;85.42
70103;BME280;57470;50.034;15.256;2023-03-03T00:10:44;99753.34;;;-1.48;86.36
70103;BME280;57470;50.034;15.256;2023-03-03T00:13:21;99743.72;;;-1.43;85.41
70103;BME280;57470;50.034;15.256;2023-03-03T00:15:47;99755.81;;;-1.41;85.76
70103;BME280;57470;50.034;15.256;2023-03-03T00:18:29;99760.25;;;-1.46;85.90
70103;BME280;57470;50.034;15.256;2023-03-03T00:20:57;99759.38;;;-1.43;85.95
70103;BME280;57470;50.034;15.256;2023-03-03T00:23:34;99762.94;;;-1.51;85.01
70103;BME280;57470;50.034;15.256;2023-03-03T00:26:00;99764.59;;;-1.45;84.66
70103;BME280;57470;50.034;15.256;2023-03-03T00:28:40;99766.41;;;-1.52;84.23
70103;BME280;57470;50.034;15.256;2023-03-03T00:31:15;99764.75;;;-1.56;85.15
70103;BME280;57470;50.034;15.256;2023-03-03T00:33:51;99763.03;;;-1.57;85.85
70103;BME280;57470;50.034;15.256;2023-03-03T00:36:27;99768.34;;;-1.63;86.43
70103;BME280;57470;50.034;15.256;2023-03-03T00:38:59;99765.63;;;-1.55;86.55
70103;BME280;57470;50.034;15.256;2023-03-03T00:41:36;99763.75;;;-1.47;86.99
70103;BME280;57470;50.034;15.256;2023-03-03T00:44:34;99772.22;;;-1.33;87.48
70103;BME280;57470;50.034;15.256;2023-03-03T00:49:45;99765.78;;;-1.12;87.74
70103;BME280;57470;50.034;15.256;2023-03-03T00:52:16;99770.91;;;-1.06;87.19
70103;BME280;57470;50.034;15.256;2023-03-03T00:54:42;99767.25;;;-0.96;87.42
70103;BME280;57470;50.034;15.256;2023-03-03T00:57:08;99766.31;;;-0.92;86.96
70103;BME280;57470;50.034;15.256;2023-03-03T00:59:33;99760.22;;;-0.91;86.33
70103;BME280;57470;50.034;15.256;2023-03-03T01:01:59;99752.25;;;-0.85;85.68
70103;BME280;57470;50.034;15.256;2023-03-03T01:04:24;99753.28;;;-0.93;85.96
70103;BME280;57470;50.034;15.256;2023-03-03T01:06:50;99749.13;;;-1.03;87.07
70103;BME280;57470;50.034;15.256;2023-03-03T01:09:15;99741.69;;;-1.26;88.26
70103;BME280;57470;50.034;15.256;2023-03-03T01:11:40;99749.00;;;-0.97;87.51
70103;BME280;57470;50.034;15.256;2023-03-03T01:14:06;99750.81;;;-0.99;85.39
70103;BME280;57470;50.034;15.256;2023-03-03T01:16:32;99747.28;;;-0.98;84.04
70103;BME280;57470;50.034;15.256;2023-03-03T01:18:58;99751.16;;;-1.21;84.50
70103;BME280;57470;50.034;15.256;2023-03-03T01:21:23;99742.44;;;-1.20;85.37
70103;BME280;57470;50.034;15.256;2023-03-03T01:23:49;99746.00;;;-1.25;85.03
70103;BME280;57470;50.034;15.256;2023-03-03T01:26:14;99739.88;;;-1.23;85.42
70103;BME280;57470;50.034;15.256;2023-03-03T01:28:40;99742.47;;;-1.23;85.03
70103;BME280;57470;50.034;15.256;2023-03-03T01:31:05;99738.25;;;-1.30;84.55
70103;BME280;57470;50.034;15.256;2023-03-03T01:33:34;99739.22;;;-1.35;85.17
70103;BME280;57470;50.034;15.256;2023-03-03T01:36:01;99737.56;;;-1.41;85.79
70103;BME280;57470;50.034;15.256;2023-03-03T01:38:26;99738.41;;;-1.39;85.98
70103;BME280;57470;50.034;15.256;2023-03-03T01:40:56;99729.16;;;-1.58;86.72
70103;BME280;57470;50.034;15.256;2023-03-03T01:43:24;99729.94;;;-1.53;85.49
70103;BME280;57470;50.034;15.256;2023-03-03T01:48:27;99730.91;;;-1.60;85.80
70103;BME280;57470;50.034;15.256;2023-03-03T01:53:28;99729.22;;;-1.63;85.19
70103;BME280;57470;50.034;15.256;2023-03-03T01:55:55;99730.13;;;-1.64;84.18
70103;BME280;57470;50.034;15.256;2023-03-03T01:58:32;99715.50;;;-1.75;85.28
70103;BME280;57470;50.034;15.256;2023-03-03T02:01:03;99718.00;;;-1.68;86.29
70103;BME280;57470;50.034;15.256;2023-03-03T02:03:30;99714.69;;;-1.79;84.80
70103;BME280;57470;50.034;15.256;2023-03-03T02:06:06;99714.63;;;-1.76;84.92
70103;BME280;57470;50.034;15.256;2023-03-03T02:08:46;99717.22;;;-1.73;84.82
70103;BME280;57470;50.034;15.256;2023-03-03T02:11:15;99710.53;;;-1.91;85.62
70103;BME280;57470;50.034;15.256;2023-03-03T02:13:41;99714.75;;;-1.82;85.85
70103;BME280;57470;50.034;15.256;2023-03-03T02:16:06;99717.50;;;-1.94;86.37
70103;BME280;57470;50.034;15.256;2023-03-03T02:18:32;99707.03;;;-1.90;86.32
70103;BME280;57470;50.034;15.256;2023-03-03T02:21:02;99709.91;;;-2.08;86.41
70103;BME280;57470;50.034;15.256;2023-03-03T02:23:42;99716.00;;;-2.09;86.14
70103;BME280;57470;50.034;15.256;2023-03-03T02:26:24;99716.91;;;-2.14;86.89
70103;BME280;57470;50.034;15.256;2023-03-03T02:28:50;99709.19;;;-2.19;86.20
70103;BME280;57470;50.034;15.256;2023-03-03T02:31:20;99704.81;;;-2.17;86.32
70103;BME280;57470;50.034;15.256;2023-03-03T02:33:48;99716.13;;;-2.18;85.64
70103;BME280;57470;50.034;15.256;2023-03-03T02:36:19;99705.81;;;-2.27;86.29
70103;BME280;57470;50.034;15.256;2023-03-03T02:44:22;99694.56;;;-2.31;86.38
70103;BME280;57470;50.034;15.256;2023-03-03T02:46:48;99710.19;;;-2.31;85.45
70103;BME280;57470;50.034;15.256;2023-03-03T02:49:18;99706.91;;;-2.42;86.19
70103;BME280;57470;50.034;15.256;2023-03-03T02:51:44;99713.84;;;-2.42;86.37
70103;BME280;57470;50.034;15.256;2023-03-03T02:54:13;99707.78;;;-2.44;86.43
70103;BME280;57470;50.034;15.256;2023-03-03T02:56:41;99708.59;;;-2.41;86.61
70103;BME280;57470;50.034;15.256;2023-03-03T02:59:08;99717.38;;;-2.49;86.95
70103;BME280;57470;50.034;15.256;2023-03-03T03:01:35;99723.63;;;-2.64;87.71
70103;BME280;57470;50.034;15.256;2023-03-03T03:04:12;99724.41;;;-2.56;87.98
70103;BME280;57470;50.034;15.256;2023-03-03T03:06:40;99728.00;;;-2.66;88.32
70103;BME280;57470;50.034;15.256;2023-03-03T03:09:07;99734.94;;;-2.65;88.54
70103;BME280;57470;50.034;15.256;2023-03-03T03:11:35;99735.22;;;-2.92;89.65
70103;BME280;57470;50.034;15.256;2023-03-03T03:14:05;99735.09;;;-2.79;89.66
70103;BME280;57470;50.034;15.256;2023-03-03T03:16:33;99722.09;;;-2.80;89.84
70103;BME280;57470;50.034;15.256;2023-03-03T03:19:01;99727.09;;;-2.63;91.59
70103;BME280;57470;50.034;15.256;2023-03-03T03:21:30;99734.75;;;-2.50;89.92
70103;BME280;57470;50.034;15.256;2023-03-03T03:23:57;99728.16;;;-2.78;89.79
70103;BME280;57470;50.034;15.256;2023-03-03T03:26:24;99727.97;;;-2.63;89.82
70103;BME280;57470;50.034;15.256;2023-03-03T03:28:52;99731.31;;;-2.52;89.44
70103;BME280;57470;50.034;15.256;2023-03-03T03:31:20;99731.25;;;-2.49;89.66
70103;BME280;57470;50.034;15.256;2023-03-03T03:33:47;99728.75;;;-2.58;89.67
70103;BME280;57470;50.034;15.256;2023-03-03T03:36:15;99732.22;;;-2.57;89.56
70103;BME280;57470;50.034;15.256;2023-03-03T03:38:41;99728.19;;;-2.83;92.32
70103;BME280;57470;50.034;15.256;2023-03-03T03:41:07;99733.00;;;-2.48;91.36
70103;BME280;57470;50.034;15.256;2023-03-03T03:43:32;99732.22;;;-2.57;90.94
70103;BME280;57470;50.034;15.256;2023-03-03T03:45:58;99727.78;;;-2.48;90.54
70103;BME280;57470;50.034;15.256;2023-03-03T03:48:24;99717.44;;;-2.52;89.96
70103;BME280;57470;50.034;15.256;2023-03-03T03:50:49;99719.19;;;-2.53;88.98
70103;BME280;57470;50.034;15.256;2023-03-03T03:53:16;99711.38;;;-2.53;88.77
70103;BME280;57470;50.034;15.256;2023-03-03T03:55:43;99714.84;;;-2.55;89.18
70103;BME280;57470;50.034;15.256;2023-03-03T03:58:12;99723.56;;;-2.58;88.33
70103;BME280;57470;50.034;15.256;2023-03-03T04:00:42;99715.69;;;-2.52;87.61
70103;BME280;57470;50.034;15.256;2023-03-03T04:03:08;99714.06;;;-2.60;87.21
70103;BME280;57470;50.034;15.256;2023-03-03T04:05:34;99710.59;;;-2.59;87.19
70103;BME280;57470;50.034;15.256;2023-03-03T04:07:59;99706.34;;;-2.70;87.79
70103;BME280;57470;50.034;15.256;2023-03-03T04:10:24;99708.97;;;-2.71;87.12
70103;BME280;57470;50.034;15.256;2023-03-03T04:12:50;99709.06;;;-2.79;87.05
70103;BME280;57470;50.034;15.256;2023-03-03T04:15:15;99712.56;;;-2.84;86.72
70103;BME280;57470;50.034;15.256;2023-03-03T04:17:41;99711.78;;;-2.91;87.19
70103;BME280;57470;50.034;15.256;2023-03-03T04:20:09;99720.56;;;-2.99;87.47
70103;BME280;57470;50.034;15.256;2023-03-03T04:22:35;99725.78;;;-3.04;86.92
70103;BME280;57470;50.034;15.256;2023-03-03T04:25:02;99727.56;;;-3.05;87.55
70103;BME280;57470;50.034;15.256;2023-03-03T04:27:33;99723.19;;;-3.03;88.40
70103;BME280;57470;50.034;15.256;2023-03-03T04:29:58;99735.38;;;-3.08;88.04
70103;BME280;57470;50.034;15.256;2023-03-03T04:32:24;99728.34;;;-2.99;87.43
70103;BME280;57470;50.034;15.256;2023-03-03T04:34:49;99730.28;;;-3.18;88.63
70103;BME280;57470;50.034;15.256;2023-03-03T04:37:15;99735.44;;;-3.14;89.33
70103;BME280;57470;50.034;15.256;2023-03-03T04:39:40;99737.22;;;-3.22;88.96
70103;BME280;57470;50.034;15.256;2023-03-03T04:42:06;99732.06;;;-3.25;88.88
70103;BME280;57470;50.034;15.256;2023-03-03T04:44:31;99732.94;;;-3.27;88.18
70103;BME280;57470;50.034;15.256;2023-03-03T04:46:56;99727.84;;;-3.38;88.62
70103;BME280;57470;50.034;15.256;2023-03-03T04:49:22;99733.09;;;-3.43;89.77
70103;BME280;57470;50.034;15.256;2023-03-03T04:51:47;99737.34;;;-3.32;88.65
70103;BME280;57470;50.034;15.256;2023-03-03T04:54:12;99737.41;;;-3.40;88.18
70103;BME280;57470;50.034;15.256;2023-03-03T04:56:38;99737.41;;;-3.40;88.18
70103;BME280;57470;50.034;15.256;2023-03-03T04:59:03;99742.66;;;-3.48;88.10
70103;BME280;57470;50.034;15.256;2023-03-03T05:01:28;99733.97;;;-3.42;88.92
70103;BME280;57470;50.034;15.256;2023-03-03T05:03:54;99745.25;;;-3.46;89.46
70103;BME280;57470;50.034;15.256;2023-03-03T05:06:19;99739.25;;;-3.54;88.13
70103;BME280;57470;50.034;15.256;2023-03-03T05:08:45;99727.03;;;-3.46;88.94
70103;BME280;57470;50.034;15.256;2023-03-03T05:11:11;99737.59;;;-3.64;88.81
70103;BME280;57470;50.034;15.256;2023-03-03T05:13:36;99725.41;;;-3.58;89.27
70103;BME280;57470;50.034;15.256;2023-03-03T05:16:02;99727.31;;;-3.78;89.73
70103;BME280;57470;50.034;15.256;2023-03-03T05:18:28;99730.78;;;-3.81;89.61
70103;BME280;57470;50.034;15.256;2023-03-03T05:20:53;99735.97;;;-3.78;89.72
70103;BME280;57470;50.034;15.256;2023-03-03T05:23:19;99739.38;;;-3.75;89.57
70103;BME280;57470;50.034;15.256;2023-03-03T05:25:48;99748.97;;;-3.82;90.54
70103;BME280;57470;50.034;15.256;2023-03-03T05:28:14;99747.34;;;-3.98;91.96
70103;BME280;57470;50.034;15.256;2023-03-03T05:30:39;99739.50;;;-3.91;90.23
70103;BME280;57470;50.034;15.256;2023-03-03T05:33:05;99728.22;;;-3.88;90.95
70103;BME280;57470;50.034;15.256;2023-03-03T05:35:31;99731.75;;;-3.95;91.33
70103;BME280;57470;50.034;15.256;2023-03-03T05:37:57;99750.81;;;-3.98;91.35
70103;BME280;57470;50.034;15.256;2023-03-03T05:40:24;99759.38;;;-3.84;91.78
70103;BME280;57470;50.034;15.256;2023-03-03T05:42:50;99763.66;;;-3.76;90.98
70103;BME280;57470;50.034;15.256;2023-03-03T05:45:16;99765.34;;;-3.68;89.79
70103;BME280;57470;50.034;15.256;2023-03-03T05:47:45;99762.94;;;-4.01;91.39
70103;BME280;57470;50.034;15.256;2023-03-03T05:50:10;99776.69;;;-3.80;90.96
70103;BME280;57470;50.034;15.256;2023-03-03T05:52:36;99776.69;;;-3.83;90.87
70103;BME280;57470;50.034;15.256;2023-03-03T05:55:01;99771.47;;;-3.78;89.94
70103;BME280;57470;50.034;15.256;2023-03-03T05:57:27;99769.81;;;-3.90;90.64
70103;BME280;57470;50.034;15.256;2023-03-03T05:59:52;99775.81;;;-3.82;90.00
70103;BME280;57470;50.034;15.256;2023-03-03T06:02:18;99781.81;;;-3.72;89.30
70103;BME280;57470;50.034;15.256;2023-03-03T06:04:43;99780.03;;;-3.64;89.30
70103;BME280;57470;50.034;15.256;2023-03-03T06:07:08;99783.44;;;-3.54;89.22
70103;BME280;57470;50.034;15.256;2023-03-03T06:09:34;99784.34;;;-3.61;89.12
70103;BME280;57470;50.034;15.256;2023-03-03T06:11:59;99788.69;;;-3.59;89.08
70103;BME280;57470;50.034;15.256;2023-03-03T06:14:24;99799.06;;;-3.59;89.51
70103;BME280;57470;50.034;15.256;2023-03-03T06:16:50;99811.16;;;-3.55;89.72
70103;BME280;57470;50.034;15.256;2023-03-03T06:19:15;99813.69;;;-3.41;89.31
70103;BME280;57470;50.034;15.256;2023-03-03T06:21:41;99825.50;;;-2.99;89.01
70103;BME280;57470;50.034;15.256;2023-03-03T06:24:07;99829.41;;;-1.19;84.30
70103;BME280;57470;50.034;15.256;2023-03-03T06:26:32;99828.47;;;-0.17;79.60
70103;BME280;57470;50.034;15.256;2023-03-03T06:28:58;99825.34;;;0.88;76.79
70103;BME280;57470;50.034;15.256;2023-03-03T06:31:25;99833.84;;;2.27;71.03
70103;BME280;57470;50.034;15.256;2023-03-03T06:33:50;99827.56;;;3.43;67.68
70103;BME280;57470;50.034;15.256;2023-03-03T06:36:17;99819.03;;;4.10;64.80
70103;BME280;57470;50.034;15.256;2023-03-03T06:38:42;99828.47;;;4.39;63.35
70103;BME280;57470;50.034;15.256;2023-03-03T06:41:08;99831.66;;;5.14;63.46
70103;BME280;57470;50.034;15.256;2023-03-03T06:43:34;99837.84;;;5.35;62.77
70103;BME280;57470;50.034;15.256;2023-03-03T06:46:00;99847.25;;;6.42;61.27
70103;BME280;57470;50.034;15.256;2023-03-03T06:48:26;99848.19;;;7.33;59.43
70103;BME280;57470;50.034;15.256;2023-03-03T06:50:51;99840.91;;;7.20;59.90
70103;BME280;57470;50.034;15.256;2023-03-03T06:53:17;99831.28;;;8.05;58.31
70103;BME280;57470;50.034;15.256;2023-03-03T06:55:43;99833.53;;;8.45;57.95
70103;BME280;57470;50.034;15.256;2023-03-03T06:58:20;99826.00;;;8.38;55.30
70103;BME280;57470;50.034;15.256;2023-03-03T07:00:56;99831.63;;;9.12;54.78
70103;BME280;57470;50.034;15.256;2023-03-03T07:03:33;99839.38;;;5.81;63.13
70103;BME280;57470;50.034;15.256;2023-03-03T07:06:01;99838.75;;;7.28;60.96
70103;BME280;57470;50.034;15.256;2023-03-03T07:08:30;99843.97;;;7.29;60.42
70103;BME280;57470;50.034;15.256;2023-03-03T07:11:01;99831.09;;;4.39;66.05
70103;BME280;57470;50.034;15.256;2023-03-03T07:13:31;99820.91;;;4.30;68.20
70103;BME280;57470;50.034;15.256;2023-03-03T07:16:00;99817.25;;;5.01;66.90
70103;BME280;57470;50.034;15.256;2023-03-03T07:21:32;99812.72;;;5.87;66.19
70103;BME280;57470;50.034;15.256;2023-03-03T07:23:59;99818.22;;;4.77;70.05
70103;BME280;57470;50.034;15.256;2023-03-03T07:26:28;99821.00;;;4.96;68.87
70103;BME280;57470;50.034;15.256;2023-03-03T07:28:59;99819.75;;;4.14;72.08
70103;BME280;57470;50.034;15.256;2023-03-03T07:34:00;99831.91;;;4.18;73.01
70103;BME280;57470;50.034;15.256;2023-03-03T07:36:34;99828.84;;;4.05;73.89
70103;BME280;57470;50.034;15.256;2023-03-03T07:39:20;99842.31;;;3.73;74.43
70103;BME280;57470;50.034;15.256;2023-03-03T07:41:48;99835.75;;;3.07;76.42
70103;BME280;57470;50.034;15.256;2023-03-03T07:49:35;99849.69;;;3.87;74.92
70103;BME280;57470;50.034;15.256;2023-03-03T07:52:01;99848.09;;;4.07;75.13
70103;BME280;57470;50.034;15.256;2023-03-03T07:54:44;99846.22;;;3.86;75.18
70103;BME280;57470;50.034;15.256;2023-03-03T08:04:53;99843.53;;;3.88;77.02
70103;BME280;57470;50.034;15.256;2023-03-03T08:07:21;99841.34;;;3.75;76.01
70103;BME280;57470;50.034;15.256;2023-03-03T08:09:49;99848.84;;;4.11;76.17
70103;BME280;57470;50.034;15.256;2023-03-03T08:14:50;99827.41;;;3.97;76.42
70103;BME280;57470;50.034;15.256;2023-03-03T08:17:20;99833.50;;;3.99;77.07
70103;BME280;57470;50.034;15.256;2023-03-03T08:19:46;99843.66;;;3.85;77.21
70103;BME280;57470;50.034;15.256;2023-03-03T08:22:15;99849.47;;;4.18;76.86
70103;BME280;57470;50.034;15.256;2023-03-03T08:24:42;99843.50;;;4.12;76.93
70103;BME280;57470;50.034;15.256;2023-03-03T08:27:07;99847.56;;;4.21;76.72
70103;BME280;57470;50.034;15.256;2023-03-03T08:29:32;99852.09;;;4.18;77.89
70103;BME280;57470;50.034;15.256;2023-03-03T08:31:58;99847.94;;;3.87;78.65
70103;BME280;57470;50.034;15.256;2023-03-03T08:34:23;99865.28;;;2.87;80.70
70103;BME280;57470;50.034;15.256;2023-03-03T08:36:48;99867.13;;;3.39;80.15
70103;BME280;57470;50.034;15.256;2023-03-03T08:39:14;99878.72;;;3.59;80.06
70103;BME280;57470;50.034;15.256;2023-03-03T08:41:39;99889.19;;;3.60;79.86
70103;BME280;57470;50.034;15.256;2023-03-03T08:44:08;99896.22;;;3.33;80.89
70103;BME280;57470;50.034;15.256;2023-03-03T08:46:34;99894.63;;;3.56;80.42
70103;BME280;57470;50.034;15.256;2023-03-03T08:48:59;99893.41;;;3.66;80.81
70103;BME280;57470;50.034;15.256;2023-03-03T08:51:24;99905.28;;;3.25;81.76
70103;BME280;57470;50.034;15.256;2023-03-03T08:53:51;99902.50;;;3.29;81.17
70103;BME280;57470;50.034;15.256;2023-03-03T08:56:16;99895.22;;;3.37;81.84
70103;BME280;57470;50.034;15.256;2023-03-03T08:58:41;99884.06;;;3.57;81.44
70103;BME280;57470;50.034;15.256;2023-03-03T09:01:13;99885.41;;;3.43;82.09
70103;BME280;57470;50.034;15.256;2023-03-03T09:03:39;99883.88;;;3.62;82.53
70103;BME280;57470;50.034;15.256;2023-03-03T09:06:05;99888.69;;;3.49;81.99
70103;BME280;57470;50.034;15.256;2023-03-03T09:08:30;99876.47;;;3.74;80.99
70103;BME280;57470;50.034;15.256;2023-03-03T09:10:56;99876.91;;;3.86;81.82
70103;BME280;57470;50.034;15.256;2023-03-03T09:13:21;99856.09;;;3.80;80.46
70103;BME280;57470;50.034;15.256;2023-03-03T09:15:47;99861.94;;;3.88;80.67
70103;BME280;57470;50.034;15.256;2023-03-03T09:18:18;99860.09;;;4.14;79.96
70103;BME280;57470;50.034;15.256;2023-03-03T09:20:50;99847.75;;;4.17;79.62
70103;BME280;57470;50.034;15.256;2023-03-03T09:23:38;99859.09;;;4.42;79.09
70103;BME280;57470;50.034;15.256;2023-03-03T09:26:17;99862.59;;;4.42;78.93
70103;BME280;57470;50.034;15.256;2023-03-03T09:28:46;99850.22;;;4.44;78.78
70103;BME280;57470;50.034;15.256;2023-03-03T09:31:25;99857.22;;;4.45;79.79
70103;BME280;57470;50.034;15.256;2023-03-03T09:33:52;99857.03;;;4.50;79.02
70103;BME280;57470;50.034;15.256;2023-03-03T09:36:25;99866.06;;;4.66;78.84
70103;BME280;57470;50.034;15.256;2023-03-03T09:38:53;99872.59;;;4.79;77.84
70103;BME280;57470;50.034;15.256;2023-03-03T09:44:35;99869.81;;;4.37;79.39
70103;BME280;57470;50.034;15.256;2023-03-03T09:47:34;99887.91;;;4.22;79.77
70103;BME280;57470;50.034;15.256;2023-03-03T09:50:29;99884.59;;;4.17;79.10
70103;BME280;57470;50.034;15.256;2023-03-03T09:55:53;99894.75;;;4.27;80.13
70103;BME280;57470;50.034;15.256;2023-03-03T10:06:35;99899.53;;;4.64;78.26
70103;BME280;57470;50.034;15.256;2023-03-03T10:12:13;99901.47;;;4.82;78.12
70103;BME280;57470;50.034;15.256;2023-03-03T10:20:24;99896.47;;;5.42;76.10
70103;BME280;57470;50.034;15.256;2023-03-03T10:22:55;99894.69;;;4.99;78.48
70103;BME280;57470;50.034;15.256;2023-03-03T10:25:33;99894.44;;;5.05;77.37
70103;BME280;57470;50.034;15.256;2023-03-03T10:33:13;99911.25;;;5.24;76.72
70103;BME280;57470;50.034;15.256;2023-03-03T10:38:40;99902.34;;;5.48;76.66
70103;BME280;57470;50.034;15.256;2023-03-03T10:41:28;99896.69;;;5.99;76.15
70103;BME280;57470;50.034;15.256;2023-03-03T10:49:38;99896.66;;;6.40;73.63
70103;BME280;57470;50.034;15.256;2023-03-03T10:55:07;99895.53;;;5.85;74.83
70103;BME280;57470;50.034;15.256;2023-03-03T10:57:38;99895.97;;;6.16;74.50
70103;BME280;57470;50.034;15.256;2023-03-03T11:00:26;99896.41;;;6.65;73.43
70103;BME280;57470;50.034;15.256;2023-03-03T11:05:42;99877.88;;;6.46;74.18
70103;BME280;57470;50.034;15.256;2023-03-03T11:08:26;99874.69;;;6.58;73.35
70103;BME280;57470;50.034;15.256;2023-03-03T11:14:12;99870.34;;;6.95;71.77
70103;BME280;57470;50.034;15.256;2023-03-03T11:17:03;99872.38;;;7.07;71.36
70103;BME280;57470;50.034;15.256;2023-03-03T11:22:27;99863.41;;;7.28;70.36
70103;BME280;57470;50.034;15.256;2023-03-03T11:31:05;99858.88;;;7.13;69.56
70103;BME280;57470;50.034;15.256;2023-03-03T11:33:43;99853.72;;;7.80;69.58
70103;BME280;57470;50.034;15.256;2023-03-03T11:37:00;99855.44;;;7.99;69.21
70103;BME280;57470;50.034;15.256;2023-03-03T11:39:15;99854.16;;;7.37;69.39
70103;BME280;57470;50.034;15.256;2023-03-03T11:42:01;99848.66;;;7.93;68.04
70103;BME280;57470;50.034;15.256;2023-03-03T11:44:34;99843.00;;;7.49;68.45
70103;BME280;57470;50.034;15.256;2023-03-03T11:52:31;99847.94;;;8.57;66.35
70103;BME280;57470;50.034;15.256;2023-03-03T11:55:08;99833.13;;;7.34;67.95
70103;BME280;57470;50.034;15.256;2023-03-03T11:57:54;99845.38;;;7.36;69.14
70103;BME280;57470;50.034;15.256;2023-03-03T12:03:17;99829.44;;;7.38;68.29
70103;BME280;57470;50.034;15.256;2023-03-03T12:08:33;99822.81;;;7.46;68.75
70103;BME280;57470;50.034;15.256;2023-03-03T12:16:53;99809.69;;;8.61;66.25
70103;BME280;57470;50.034;15.256;2023-03-03T12:19:31;99807.19;;;8.09;66.77
70103;BME280;57470;50.034;15.256;2023-03-03T12:27:48;99802.69;;;8.44;65.45
70103;BME280;57470;50.034;15.256;2023-03-03T12:30:40;99792.59;;;8.82;64.81
70103;BME280;57470;50.034;15.256;2023-03-03T12:39:13;99790.00;;;8.96;64.81
70103;BME280;57470;50.034;15.256;2023-03-03T12:44:37;99788.84;;;9.32;65.21
70103;BME280;57470;50.034;15.256;2023-03-03T12:47:32;99789.38;;;9.38;63.81
70103;BME280;57470;50.034;15.256;2023-03-03T12:50:16;99786.06;;;9.49;63.65
70103;BME280;57470;50.034;15.256;2023-03-03T12:55:36;99783.81;;;9.27;63.52
70103;BME280;57470;50.034;15.256;2023-03-03T13:00:51;99781.63;;;8.88;62.39
70103;BME280;57470;50.034;15.256;2023-03-03T13:03:35;99773.94;;;8.68;63.72
70103;BME280;57470;50.034;15.256;2023-03-03T13:06:17;99768.84;;;8.65;64.08
70103;BME280;57470;50.034;15.256;2023-03-03T13:11:26;99780.09;;;9.46;63.99
70103;BME280;57470;50.034;15.256;2023-03-03T13:16:42;99772.22;;;8.36;63.94
70103;BME280;57470;50.034;15.256;2023-03-03T13:19:17;99773.09;;;8.83;63.92
70103;BME280;57470;50.034;15.256;2023-03-03T13:21:53;99766.53;;;9.20;63.78
70103;BME280;57470;50.034;15.256;2023-03-03T13:24:28;99770.38;;;9.15;62.36
70103;BME280;57470;50.034;15.256;2023-03-03T13:27:02;99780.16;;;9.44;62.27
70103;BME280;57470;50.034;15.256;2023-03-03T13:29:35;99763.59;;;9.25;61.89
70103;BME280;57470;50.034;15.256;2023-03-03T13:32:13;99760.19;;;9.23;61.15
70103;BME280;57470;50.034;15.256;2023-03-03T13:37:18;99761.66;;;9.72;60.87
70103;BME280;57470;50.034;15.256;2023-03-03T13:39:53;99757.97;;;9.15;63.62
70103;BME280;57470;50.034;15.256;2023-03-03T13:42:32;99763.53;;;9.56;61.29
70103;BME280;57470;50.034;15.256;2023-03-03T13:45:02;99749.81;;;8.88;61.88
70103;BME280;57470;50.034;15.256;2023-03-03T13:50:35;99756.53;;;9.39;62.38
70103;BME280;57470;50.034;15.256;2023-03-03T13:58:58;99748.63;;;9.54;61.52
70103;BME280;57470;50.034;15.256;2023-03-03T14:04:35;99744.72;;;9.45;60.44
70103;BME280;57470;50.034;15.256;2023-03-03T14:10:29;99734.19;;;9.44;61.50
70103;BME280;57470;50.034;15.256;2023-03-03T14:13:08;99736.03;;;9.27;60.61
70103;BME280;57470;50.034;15.256;2023-03-03T14:15:57;99737.66;;;9.30;60.54
70103;BME280;57470;50.034;15.256;2023-03-03T14:24:00;99740.56;;;9.55;60.47
70103;BME280;57470;50.034;15.256;2023-03-03T14:26:26;99733.63;;;9.53;60.30
70103;BME280;57470;50.034;15.256;2023-03-03T14:29:15;99732.47;;;9.43;60.27
70103;BME280;57470;50.034;15.256;2023-03-03T14:31:43;99729.94;;;9.55;60.92
70103;BME280;57470;50.034;15.256;2023-03-03T14:34:35;99732.56;;;9.41;61.22
70103;BME280;57470;50.034;15.256;2023-03-03T14:37:27;99730.28;;;9.35;60.98
70103;BME280;57470;50.034;15.256;2023-03-03T14:42:39;99731.50;;;9.29;61.34
70103;BME280;57470;50.034;15.256;2023-03-03T14:45:19;99732.91;;;9.21;62.24
70103;BME280;57470;50.034;15.256;2023-03-03T14:47:45;99727.31;;;9.25;61.78
70103;BME280;57470;50.034;15.256;2023-03-03T14:50:31;99728.78;;;8.85;62.46
70103;BME280;57470;50.034;15.256;2023-03-03T14:53:19;99734.13;;;8.99;62.46
70103;BME280;57470;50.034;15.256;2023-03-03T14:55:47;99722.66;;;8.53;63.35
70103;BME280;57470;50.034;15.256;2023-03-03T15:00:49;99727.59;;;8.59;63.55
70103;BME280;57470;50.034;15.256;2023-03-03T15:03:27;99731.88;;;8.62;63.90
70103;BME280;57470;50.034;15.256;2023-03-03T15:05:55;99719.91;;;8.55;63.75
70103;BME280;57470;50.034;15.256;2023-03-03T15:08:31;99719.81;;;8.72;63.52
70103;BME280;57470;50.034;15.256;2023-03-03T15:11:11;99715.00;;;8.79;63.78
70103;BME280;57470;50.034;15.256;2023-03-03T15:13:38;99718.19;;;8.54;64.22
70103;BME280;57470;50.034;15.256;2023-03-03T15:16:10;99715.09;;;8.61;64.20
70103;BME280;57470;50.034;15.256;2023-03-03T15:24:28;99699.72;;;8.52;64.50
70103;BME280;57470;50.034;15.256;2023-03-03T15:27:01;99700.28;;;8.26;65.52
70103;BME280;57470;50.034;15.256;2023-03-03T15:29:36;99706.28;;;8.29;64.97
70103;BME280;57470;50.034;15.256;2023-03-03T15:34:57;99711.97;;;8.06;64.40
70103;BME280;57470;50.034;15.256;2023-03-03T15:37:37;99707.22;;;8.13;63.91
70103;BME280;57470;50.034;15.256;2023-03-03T15:40:18;99709.88;;;8.13;63.80
70103;BME280;57470;50.034;15.256;2023-03-03T15:42:47;99713.06;;;7.53;63.90
70103;BME280;57470;50.034;15.256;2023-03-03T15:45:23;99711.47;;;7.67;64.27
70103;BME280;57470;50.034;15.256;2023-03-03T15:58:45;99709.63;;;6.83;65.27
70103;BME280;57470;50.034;15.256;2023-03-03T16:01:41;99705.53;;;7.11;64.94
70103;BME280;57470;50.034;15.256;2023-03-03T16:04:19;99702.34;;;6.88;66.87
70103;BME280;57470;50.034;15.256;2023-03-03T16:06:51;99698.91;;;6.86;68.41
70103;BME280;57470;50.034;15.256;2023-03-03T16:21:49;99712.59;;;6.03;72.05
70103;BME280;57470;50.034;15.256;2023-03-03T16:27:35;99714.84;;;5.92;72.39